sensor_id;sensor_type;location;lat;lon;timestamp;temperature;humidity
29539;DHT22;16482;51.046;4.498;2023-05-28T00:01:25;24.00;39.60
29539;DHT22;16482;51.046;4.498;2023-05-28T00:04:00;24.00;39.70
29539;DHT22;16482;51.046;4.498;2023-05-28T00:06:28;24.00;39.60
29539;DHT22;16482;51.046;4.498;2023-05-28T00:08:57;23.90;39.70
29539;DHT22;16482;51.046;4.498;2023-05-28T00:11:31;24.00;39.80
29539;DHT22;16482;51.046;4.498;2023-05-28T00:13:57;24.00;39.80
29539;DHT22;16482;51.046;4.498;2023-05-28T00:16:26;24.00;40.00
29539;DHT22;16482;51.046;4.498;2023-05-28T00:18:55;24.00;39.90
29539;DHT22;16482;51.046;4.498;2023-05-28T00:21:28;24.00;40.00
29539;DHT22;16482;51.046;4.498;2023-05-28T00:23:57;24.00;40.00
29539;DHT22;16482;51.046;4.498;2023-05-28T00:26:30;24.00;40.10
29539;DHT22;16482;51.046;4.498;2023-05-28T00:28:56;23.90;40.10
29539;DHT22;16482;51.046;4.498;2023-05-28T00:31:27;23.90;40.10
29539;DHT22;16482;51.046;4.498;2023-05-28T00:33:56;24.00;40.20
29539;DHT22;16482;51.046;4.498;2023-05-28T00:36:25;24.00;40.20
29539;DHT22;16482;51.046;4.498;2023-05-28T00:38:56;24.00;40.20
29539;DHT22;16482;51.046;4.498;2023-05-28T00:41:25;24.00;40.30
29539;DHT22;16482;51.046;4.498;2023-05-28T00:44:00;23.90;40.30
29539;DHT22;16482;51.046;4.498;2023-05-28T00:46:26;24.00;40.30
29539;DHT22;16482;51.046;4.498;2023-05-28T00:49:01;23.90;40.30
29539;DHT22;16482;51.046;4.498;2023-05-28T00:51:28;24.00;40.30
29539;DHT22;16482;51.046;4.498;2023-05-28T00:53:57;23.90;40.30
29539;DHT22;16482;51.046;4.498;2023-05-28T00:56:25;23.90;40.30
29539;DHT22;16482;51.046;4.498;2023-05-28T00:58:54;23.90;40.30
29539;DHT22;16482;51.046;4.498;2023-05-28T01:01:29;23.90;41.00
29539;DHT22;16482;51.046;4.498;2023-05-28T01:03:55;23.90;40.40
29539;DHT22;16482;51.046;4.498;2023-05-28T01:06:30;23.90;40.50
29539;DHT22;16482;51.046;4.498;2023-05-28T01:08:59;23.90;40.40
29539;DHT22;16482;51.046;4.498;2023-05-28T01:11:26;23.90;40.50
29539;DHT22;16482;51.046;4.498;2023-05-28T01:14:02;23.90;40.50
29539;DHT22;16482;51.046;4.498;2023-05-28T01:16:28;24.00;40.50
29539;DHT22;16482;51.046;4.498;2023-05-28T01:18:58;23.90;40.60
29539;DHT22;16482;51.046;4.498;2023-05-28T01:21:25;23.90;40.50
29539;DHT22;16482;51.046;4.498;2023-05-28T01:23:57;23.90;40.50
29539;DHT22;16482;51.046;4.498;2023-05-28T01:26:24;23.90;40.60
29539;DHT22;16482;51.046;4.498;2023-05-28T01:28:56;23.90;40.60
29539;DHT22;16482;51.046;4.498;2023-05-28T01:31:28;23.90;40.70
29539;DHT22;16482;51.046;4.498;2023-05-28T01:33:56;23.90;40.70
29539;DHT22;16482;51.046;4.498;2023-05-28T01:36:29;23.90;40.70
29539;DHT22;16482;51.046;4.498;2023-05-28T01:38:57;23.90;41.30
29539;DHT22;16482;51.046;4.498;2023-05-28T01:41:28;23.90;40.70
29539;DHT22;16482;51.046;4.498;2023-05-28T01:43:58;23.90;40.80
29539;DHT22;16482;51.046;4.498;2023-05-28T01:46:25;23.90;40.80
29539;DHT22;16482;51.046;4.498;2023-05-28T01:48:59;23.80;40.80
29539;DHT22;16482;51.046;4.498;2023-05-28T01:51:26;23.90;40.80
29539;DHT22;16482;51.046;4.498;2023-05-28T01:53:57;23.80;40.80
29539;DHT22;16482;51.046;4.498;2023-05-28T01:56:25;23.90;40.90
29539;DHT22;16482;51.046;4.498;2023-05-28T01:58:53;23.90;40.90
29539;DHT22;16482;51.046;4.498;2023-05-28T02:01:31;23.90;41.00
29539;DHT22;16482;51.046;4.498;2023-05-28T02:03:59;23.90;40.90
29539;DHT22;16482;51.046;4.498;2023-05-28T02:06:27;23.90;40.90
29539;DHT22;16482;51.046;4.498;2023-05-28T02:08:56;23.90;41.00
29539;DHT22;16482;51.046;4.498;2023-05-28T02:11:25;23.90;40.90
29539;DHT22;16482;51.046;4.498;2023-05-28T02:14:00;23.90;41.00
29539;DHT22;16482;51.046;4.498;2023-05-28T02:16:26;23.90;41.00
29539;DHT22;16482;51.046;4.498;2023-05-28T02:18:55;23.90;41.00
29539;DHT22;16482;51.046;4.498;2023-05-28T02:21:24;23.70;41.10
29539;DHT22;16482;51.046;4.498;2023-05-28T02:23:57;23.80;41.20
29539;DHT22;16482;51.046;4.498;2023-05-28T02:26:32;23.80;41.80
29539;DHT22;16482;51.046;4.498;2023-05-28T02:28:58;23.80;41.10
29539;DHT22;16482;51.046;4.498;2023-05-28T02:31:26;23.80;41.20
29539;DHT22;16482;51.046;4.498;2023-05-28T02:33:55;23.80;41.20
29539;DHT22;16482;51.046;4.498;2023-05-28T02:36:24;23.80;41.10
29539;DHT22;16482;51.046;4.498;2023-05-28T02:38:58;23.80;41.10
29539;DHT22;16482;51.046;4.498;2023-05-28T02:41:26;23.80;41.10
29539;DHT22;16482;51.046;4.498;2023-05-28T02:43:55;23.80;41.10
29539;DHT22;16482;51.046;4.498;2023-05-28T02:46:29;23.80;41.10
29539;DHT22;16482;51.046;4.498;2023-05-28T02:48:55;23.80;41.10
29539;DHT22;16482;51.046;4.498;2023-05-28T02:51:30;23.90;41.20
29539;DHT22;16482;51.046;4.498;2023-05-28T02:53:56;23.80;41.10
29539;DHT22;16482;51.046;4.498;2023-05-28T02:56:27;23.80;41.10
29539;DHT22;16482;51.046;4.498;2023-05-28T02:58:56;23.80;41.20
29539;DHT22;16482;51.046;4.498;2023-05-28T03:01:27;23.80;41.20
29539;DHT22;16482;51.046;4.498;2023-05-28T03:04:02;23.80;41.20
29539;DHT22;16482;51.046;4.498;2023-05-28T03:06:28;23.90;41.20
29539;DHT22;16482;51.046;4.498;2023-05-28T03:08:56;23.80;41.20
29539;DHT22;16482;51.046;4.498;2023-05-28T03:11:25;23.90;41.20
29539;DHT22;16482;51.046;4.498;2023-05-28T03:13:58;23.80;41.10
29539;DHT22;16482;51.046;4.498;2023-05-28T03:16:24;23.80;41.20
29539;DHT22;16482;51.046;4.498;2023-05-28T03:19:00;23.80;41.20
29539;DHT22;16482;51.046;4.498;2023-05-28T03:21:29;23.80;41.20
29539;DHT22;16482;51.046;4.498;2023-05-28T03:23:57;23.80;41.30
29539;DHT22;16482;51.046;4.498;2023-05-28T03:26:30;23.80;41.20
29539;DHT22;16482;51.046;4.498;2023-05-28T03:28:56;23.80;41.20
29539;DHT22;16482;51.046;4.498;2023-05-28T03:31:30;23.80;41.30
29539;DHT22;16482;51.046;4.498;2023-05-28T03:33:58;23.80;41.30
29539;DHT22;16482;51.046;4.498;2023-05-28T03:36:27;23.80;41.90
29539;DHT22;16482;51.046;4.498;2023-05-28T03:38:54;23.80;41.20
29539;DHT22;16482;51.046;4.498;2023-05-28T03:41:26;23.80;41.30
29539;DHT22;16482;51.046;4.498;2023-05-28T03:43:57;23.80;41.20
29539;DHT22;16482;51.046;4.498;2023-05-28T03:46:27;23.80;41.20
29539;DHT22;16482;51.046;4.498;2023-05-28T03:48:56;23.80;41.20
29539;DHT22;16482;51.046;4.498;2023-05-28T03:51:25;23.80;41.20
29539;DHT22;16482;51.046;4.498;2023-05-28T03:53:57;23.80;41.30
29539;DHT22;16482;51.046;4.498;2023-05-28T03:56:32;23.80;41.20
29539;DHT22;16482;51.046;4.498;2023-05-28T03:58:59;23.80;41.30
29539;DHT22;16482;51.046;4.498;2023-05-28T04:01:28;23.80;41.30
29539;DHT22;16482;51.046;4.498;2023-05-28T04:03:57;23.80;41.30
29539;DHT22;16482;51.046;4.498;2023-05-28T04:06:27;23.80;41.30
29539;DHT22;16482;51.046;4.498;2023-05-28T04:08:56;23.80;41.30
29539;DHT22;16482;51.046;4.498;2023-05-28T04:11:31;23.80;41.30
29539;DHT22;16482;51.046;4.498;2023-05-28T04:13:59;23.80;41.30
29539;DHT22;16482;51.046;4.498;2023-05-28T04:16:27;23.80;41.40
29539;DHT22;16482;51.046;4.498;2023-05-28T04:19:02;23.80;41.40
29539;DHT22;16482;51.046;4.498;2023-05-28T04:21:28;23.80;41.30
29539;DHT22;16482;51.046;4.498;2023-05-28T04:23:57;23.80;42.00
29539;DHT22;16482;51.046;4.498;2023-05-28T04:26:31;23.80;41.40
29539;DHT22;16482;51.046;4.498;2023-05-28T04:28:57;23.80;41.40
29539;DHT22;16482;51.046;4.498;2023-05-28T04:31:28;23.80;41.50
29539;DHT22;16482;51.046;4.498;2023-05-28T04:33:54;23.80;41.40
29539;DHT22;16482;51.046;4.498;2023-05-28T04:36:25;23.80;41.40
29539;DHT22;16482;51.046;4.498;2023-05-28T04:38:57;23.80;41.40
29539;DHT22;16482;51.046;4.498;2023-05-28T04:41:26;23.80;41.50
29539;DHT22;16482;51.046;4.498;2023-05-28T04:43:55;23.80;41.40
29539;DHT22;16482;51.046;4.498;2023-05-28T04:46:24;23.80;41.40
29539;DHT22;16482;51.046;4.498;2023-05-28T04:49:00;23.80;42.10
29539;DHT22;16482;51.046;4.498;2023-05-28T04:51:26;23.80;41.40
29539;DHT22;16482;51.046;4.498;2023-05-28T04:53:56;23.80;41.50
29539;DHT22;16482;51.046;4.498;2023-05-28T04:56:31;23.80;41.60
29539;DHT22;16482;51.046;4.498;2023-05-28T04:58:57;23.80;41.50
29539;DHT22;16482;51.046;4.498;2023-05-28T05:01:26;23.80;41.60
29539;DHT22;16482;51.046;4.498;2023-05-28T05:03:56;23.80;41.70
29539;DHT22;16482;51.046;4.498;2023-05-28T05:06:29;23.80;41.70
29539;DHT22;16482;51.046;4.498;2023-05-28T05:08:55;23.80;41.70
29539;DHT22;16482;51.046;4.498;2023-05-28T05:11:31;23.70;41.70
29539;DHT22;16482;51.046;4.498;2023-05-28T05:13:56;23.80;41.60
29539;DHT22;16482;51.046;4.498;2023-05-28T05:16:30;23.80;41.80
29539;DHT22;16482;51.046;4.498;2023-05-28T05:18:56;23.80;41.70
29539;DHT22;16482;51.046;4.498;2023-05-28T05:21:29;23.80;41.80
29539;DHT22;16482;51.046;4.498;2023-05-28T05:23:55;23.80;41.70
29539;DHT22;16482;51.046;4.498;2023-05-28T05:26:29;23.70;41.70
29539;DHT22;16482;51.046;4.498;2023-05-28T05:28:57;23.80;41.80
29539;DHT22;16482;51.046;4.498;2023-05-28T05:31:30;23.70;41.70
29539;DHT22;16482;51.046;4.498;2023-05-28T05:33:57;23.80;41.80
29539;DHT22;16482;51.046;4.498;2023-05-28T05:36:30;23.80;41.90
29539;DHT22;16482;51.046;4.498;2023-05-28T05:38:56;23.80;41.90
29539;DHT22;16482;51.046;4.498;2023-05-28T05:41:24;23.70;42.50
29539;DHT22;16482;51.046;4.498;2023-05-28T05:44:01;23.70;41.90
29539;DHT22;16482;51.046;4.498;2023-05-28T05:46:29;23.80;41.90
29539;DHT22;16482;51.046;4.498;2023-05-28T05:48:58;23.70;41.90
29539;DHT22;16482;51.046;4.498;2023-05-28T05:51:26;23.80;42.10
29539;DHT22;16482;51.046;4.498;2023-05-28T05:53:55;23.80;42.00
29539;DHT22;16482;51.046;4.498;2023-05-28T05:56:30;23.80;42.00
29539;DHT22;16482;51.046;4.498;2023-05-28T05:58:58;23.80;41.90
29539;DHT22;16482;51.046;4.498;2023-05-28T06:01:33;23.70;41.90
29539;DHT22;16482;51.046;4.498;2023-05-28T06:03:59;23.80;42.00
29539;DHT22;16482;51.046;4.498;2023-05-28T06:06:28;23.70;42.00
29539;DHT22;16482;51.046;4.498;2023-05-28T06:09:01;23.70;42.00
29539;DHT22;16482;51.046;4.498;2023-05-28T06:11:27;23.80;42.00
29539;DHT22;16482;51.046;4.498;2023-05-28T06:13:57;23.80;42.10
29539;DHT22;16482;51.046;4.498;2023-05-28T06:16:33;23.80;42.10
29539;DHT22;16482;51.046;4.498;2023-05-28T06:18:59;23.80;42.00
29539;DHT22;16482;51.046;4.498;2023-05-28T06:21:25;23.70;42.10
29539;DHT22;16482;51.046;4.498;2023-05-28T06:23:59;23.70;42.00
29539;DHT22;16482;51.046;4.498;2023-05-28T06:26:28;23.80;42.10
29539;DHT22;16482;51.046;4.498;2023-05-28T06:28:57;23.80;42.10
29539;DHT22;16482;51.046;4.498;2023-05-28T06:31:26;23.80;42.10
29539;DHT22;16482;51.046;4.498;2023-05-28T06:33:54;23.80;42.20
29539;DHT22;16482;51.046;4.498;2023-05-28T06:36:29;23.80;42.20
29539;DHT22;16482;51.046;4.498;2023-05-28T06:38:58;23.80;42.10
29539;DHT22;16482;51.046;4.498;2023-05-28T06:41:31;23.80;42.20
29539;DHT22;16482;51.046;4.498;2023-05-28T06:43:57;23.80;42.20
29539;DHT22;16482;51.046;4.498;2023-05-28T06:46:26;23.80;42.30
29539;DHT22;16482;51.046;4.498;2023-05-28T06:48:56;24.00;42.10
29539;DHT22;16482;51.046;4.498;2023-05-28T06:51:31;24.20;41.60
29539;DHT22;16482;51.046;4.498;2023-05-28T06:53:57;24.40;41.30
29539;DHT22;16482;51.046;4.498;2023-05-28T06:56:30;24.40;41.10
29539;DHT22;16482;51.046;4.498;2023-05-28T06:58:56;24.60;40.80
29539;DHT22;16482;51.046;4.498;2023-05-28T07:01:31;24.70;40.60
29539;DHT22;16482;51.046;4.498;2023-05-28T07:03:57;24.90;40.20
29539;DHT22;16482;51.046;4.498;2023-05-28T07:06:25;25.00;39.90
29539;DHT22;16482;51.046;4.498;2023-05-28T07:08:59;25.10;39.70
29539;DHT22;16482;51.046;4.498;2023-05-28T07:11:25;25.20;39.40
29539;DHT22;16482;51.046;4.498;2023-05-28T07:13:57;25.30;39.30
29539;DHT22;16482;51.046;4.498;2023-05-28T07:16:32;25.40;39.20
29539;DHT22;16482;51.046;4.498;2023-05-28T07:18:57;25.50;39.00
29539;DHT22;16482;51.046;4.498;2023-05-28T07:21:32;25.60;39.00
29539;DHT22;16482;51.046;4.498;2023-05-28T07:23:58;25.60;38.80
29539;DHT22;16482;51.046;4.498;2023-05-28T07:26:27;25.60;38.70
29539;DHT22;16482;51.046;4.498;2023-05-28T07:28:58;25.70;38.60
29539;DHT22;16482;51.046;4.498;2023-05-28T07:31:28;25.70;38.50
29539;DHT22;16482;51.046;4.498;2023-05-28T07:33:59;25.80;38.50
29539;DHT22;16482;51.046;4.498;2023-05-28T07:36:28;25.70;38.50
29539;DHT22;16482;51.046;4.498;2023-05-28T07:38:54;25.60;38.70
29539;DHT22;16482;51.046;4.498;2023-05-28T07:41:29;25.50;38.70
29539;DHT22;16482;51.046;4.498;2023-05-28T07:43:58;25.50;38.90
29539;DHT22;16482;51.046;4.498;2023-05-28T07:46:31;25.40;39.20
29539;DHT22;16482;51.046;4.498;2023-05-28T07:48:57;25.30;39.30
29539;DHT22;16482;51.046;4.498;2023-05-28T07:51:30;25.20;39.40
29539;DHT22;16482;51.046;4.498;2023-05-28T07:53:57;25.20;39.60
29539;DHT22;16482;51.046;4.498;2023-05-28T07:56:33;25.00;39.70
29539;DHT22;16482;51.046;4.498;2023-05-28T07:58:59;25.00;39.90
29539;DHT22;16482;51.046;4.498;2023-05-28T08:01:25;24.90;40.00
29539;DHT22;16482;51.046;4.498;2023-05-28T08:03:59;24.90;40.10
29539;DHT22;16482;51.046;4.498;2023-05-28T08:06:28;24.90;40.20
29539;DHT22;16482;51.046;4.498;2023-05-28T08:08:57;24.80;40.30
29539;DHT22;16482;51.046;4.498;2023-05-28T08:11:27;24.80;40.50
29539;DHT22;16482;51.046;4.498;2023-05-28T08:13:55;24.80;40.50
29539;DHT22;16482;51.046;4.498;2023-05-28T08:16:30;24.80;40.50
29539;DHT22;16482;51.046;4.498;2023-05-28T08:18:58;24.80;40.50
29539;DHT22;16482;51.046;4.498;2023-05-28T08:21:27;24.70;40.60
29539;DHT22;16482;51.046;4.498;2023-05-28T08:23:56;24.70;40.60
29539;DHT22;16482;51.046;4.498;2023-05-28T08:26:29;24.70;40.60
29539;DHT22;16482;51.046;4.498;2023-05-28T08:28:57;24.70;40.60
29539;DHT22;16482;51.046;4.498;2023-05-28T08:31:31;24.60;40.60
29539;DHT22;16482;51.046;4.498;2023-05-28T08:33:57;24.70;40.60
29539;DHT22;16482;51.046;4.498;2023-05-28T08:36:31;24.70;40.70
29539;DHT22;16482;51.046;4.498;2023-05-28T08:38:57;24.70;40.60
29539;DHT22;16482;51.046;4.498;2023-05-28T08:41:26;24.70;40.60
29539;DHT22;16482;51.046;4.498;2023-05-28T08:43:59;24.70;40.60
29539;DHT22;16482;51.046;4.498;2023-05-28T08:46:30;24.70;40.60
29539;DHT22;16482;51.046;4.498;2023-05-28T08:48:58;24.70;40.60
29539;DHT22;16482;51.046;4.498;2023-05-28T08:51:24;24.70;40.60
29539;DHT22;16482;51.046;4.498;2023-05-28T08:54:00;24.70;40.60
29539;DHT22;16482;51.046;4.498;2023-05-28T08:56:29;24.70;40.60
29539;DHT22;16482;51.046;4.498;2023-05-28T08:58:55;24.70;40.60
29539;DHT22;16482;51.046;4.498;2023-05-28T09:01:29;24.70;40.60
29539;DHT22;16482;51.046;4.498;2023-05-28T09:03:57;24.70;40.60
29539;DHT22;16482;51.046;4.498;2023-05-28T09:06:31;24.70;40.60
29539;DHT22;16482;51.046;4.498;2023-05-28T09:08:57;24.70;40.60
29539;DHT22;16482;51.046;4.498;2023-05-28T09:11:26;24.70;40.60
29539;DHT22;16482;51.046;4.498;2023-05-28T09:14:08;24.70;40.60
29539;DHT22;16482;51.046;4.498;2023-05-28T09:16:34;24.70;40.60
29539;DHT22;16482;51.046;4.498;2023-05-28T09:19:04;24.70;40.60
29539;DHT22;16482;51.046;4.498;2023-05-28T09:21:30;24.70;40.60
29539;DHT22;16482;51.046;4.498;2023-05-28T09:23:59;24.70;40.60
29539;DHT22;16482;51.046;4.498;2023-05-28T09:26:29;24.70;40.60
29539;DHT22;16482;51.046;4.498;2023-05-28T09:28:56;24.70;40.60
29539;DHT22;16482;51.046;4.498;2023-05-28T09:31:32;24.70;40.60
29539;DHT22;16482;51.046;4.498;2023-05-28T09:33:59;24.70;40.60
29539;DHT22;16482;51.046;4.498;2023-05-28T09:36:28;24.70;40.60
29539;DHT22;16482;51.046;4.498;2023-05-28T09:38:58;24.70;40.60
29539;DHT22;16482;51.046;4.498;2023-05-28T09:41:27;24.70;40.60
29539;DHT22;16482;51.046;4.498;2023-05-28T09:44:01;24.70;40.50
29539;DHT22;16482;51.046;4.498;2023-05-28T09:46:32;24.70;40.50
29539;DHT22;16482;51.046;4.498;2023-05-28T09:48:59;24.70;40.50
29539;DHT22;16482;51.046;4.498;2023-05-28T09:51:29;24.70;40.50
29539;DHT22;16482;51.046;4.498;2023-05-28T09:54:04;24.70;40.50
29539;DHT22;16482;51.046;4.498;2023-05-28T09:56:34;24.70;40.40
29539;DHT22;16482;51.046;4.498;2023-05-28T09:59:06;24.60;40.40
29539;DHT22;16482;51.046;4.498;2023-05-28T10:02:10;24.60;40.40
29539;DHT22;16482;51.046;4.498;2023-05-28T10:04:53;24.70;40.30
29539;DHT22;16482;51.046;4.498;2023-05-28T10:07:22;24.60;40.30
29539;DHT22;16482;51.046;4.498;2023-05-28T10:09:51;24.60;40.30
29539;DHT22;16482;51.046;4.498;2023-05-28T10:12:23;24.60;40.30
29539;DHT22;16482;51.046;4.498;2023-05-28T10:14:49;24.60;40.20
29539;DHT22;16482;51.046;4.498;2023-05-28T10:17:18;24.60;40.20
29539;DHT22;16482;51.046;4.498;2023-05-28T10:19:48;24.60;40.10
29539;DHT22;16482;51.046;4.498;2023-05-28T10:22:17;24.60;40.10
29539;DHT22;16482;51.046;4.498;2023-05-28T10:24:53;24.60;40.10
29539;DHT22;16482;51.046;4.498;2023-05-28T10:27:20;24.60;40.00
29539;DHT22;16482;51.046;4.498;2023-05-28T10:29:48;24.60;40.00
29539;DHT22;16482;51.046;4.498;2023-05-28T10:32:23;24.60;40.10
29539;DHT22;16482;51.046;4.498;2023-05-28T10:34:49;24.60;40.00
29539;DHT22;16482;51.046;4.498;2023-05-28T10:37:22;24.60;40.00
29539;DHT22;16482;51.046;4.498;2023-05-28T10:39:48;24.60;39.90
29539;DHT22;16482;51.046;4.498;2023-05-28T10:42:18;24.60;40.00
29539;DHT22;16482;51.046;4.498;2023-05-28T10:47:39;24.60;39.80
29539;DHT22;16482;51.046;4.498;2023-05-28T10:50:12;24.60;39.80
29539;DHT22;16482;51.046;4.498;2023-05-28T10:52:38;24.60;39.80
29539;DHT22;16482;51.046;4.498;2023-05-28T10:55:07;24.60;39.80
29539;DHT22;16482;51.046;4.498;2023-05-28T10:57:44;24.60;39.80
29539;DHT22;16482;51.046;4.498;2023-05-28T11:00:12;24.60;39.80
29539;DHT22;16482;51.046;4.498;2023-05-28T11:02:45;24.60;39.80
29539;DHT22;16482;51.046;4.498;2023-05-28T11:05:13;24.60;39.80
29539;DHT22;16482;51.046;4.498;2023-05-28T11:07:40;24.60;39.80
29539;DHT22;16482;51.046;4.498;2023-05-28T11:10:11;24.60;39.70
29539;DHT22;16482;51.046;4.498;2023-05-28T11:12:39;24.60;39.70
29539;DHT22;16482;51.046;4.498;2023-05-28T11:15:07;24.60;39.70
29539;DHT22;16482;51.046;4.498;2023-05-28T11:17:37;24.60;39.70
29539;DHT22;16482;51.046;4.498;2023-05-28T11:20:04;24.60;39.60
29539;DHT22;16482;51.046;4.498;2023-05-28T11:22:35;24.60;39.70
29539;DHT22;16482;51.046;4.498;2023-05-28T11:25:04;24.60;39.70
29539;DHT22;16482;51.046;4.498;2023-05-28T11:27:32;24.60;39.70
29539;DHT22;16482;51.046;4.498;2023-05-28T11:30:02;24.60;39.60
29539;DHT22;16482;51.046;4.498;2023-05-28T11:32:32;24.60;39.60
29539;DHT22;16482;51.046;4.498;2023-05-28T11:34:58;24.60;39.60
29539;DHT22;16482;51.046;4.498;2023-05-28T11:37:26;24.60;39.60
29539;DHT22;16482;51.046;4.498;2023-05-28T11:39:53;24.60;39.50
29539;DHT22;16482;51.046;4.498;2023-05-28T11:42:21;24.60;39.50
29539;DHT22;16482;51.046;4.498;2023-05-28T11:44:50;24.60;39.50
29539;DHT22;16482;51.046;4.498;2023-05-28T11:47:20;24.60;39.50
29539;DHT22;16482;51.046;4.498;2023-05-28T11:49:49;24.70;39.60
29539;DHT22;16482;51.046;4.498;2023-05-28T11:52:25;24.60;39.50
29539;DHT22;16482;51.046;4.498;2023-05-28T11:54:56;24.60;39.50
29539;DHT22;16482;51.046;4.498;2023-05-28T11:57:27;24.60;39.60
29539;DHT22;16482;51.046;4.498;2023-05-28T12:00:02;24.60;39.60
29539;DHT22;16482;51.046;4.498;2023-05-28T12:02:44;24.60;39.50
29539;DHT22;16482;51.046;4.498;2023-05-28T12:05:11;24.70;39.60
29539;DHT22;16482;51.046;4.498;2023-05-28T12:07:37;24.60;39.50
29539;DHT22;16482;51.046;4.498;2023-05-28T12:10:11;24.60;39.50
29539;DHT22;16482;51.046;4.498;2023-05-28T12:12:49;24.60;39.50
29539;DHT22;16482;51.046;4.498;2023-05-28T12:15:16;24.70;39.50
29539;DHT22;16482;51.046;4.498;2023-05-28T12:17:44;24.60;39.40
29539;DHT22;16482;51.046;4.498;2023-05-28T12:22:44;24.60;39.40
29539;DHT22;16482;51.046;4.498;2023-05-28T12:25:10;24.60;39.50
29539;DHT22;16482;51.046;4.498;2023-05-28T12:27:37;24.60;39.40
29539;DHT22;16482;51.046;4.498;2023-05-28T12:30:04;24.60;39.40
29539;DHT22;16482;51.046;4.498;2023-05-28T12:32:30;24.60;39.40
29539;DHT22;16482;51.046;4.498;2023-05-28T12:34:56;24.60;39.30
29539;DHT22;16482;51.046;4.498;2023-05-28T12:37:23;24.60;39.40
29539;DHT22;16482;51.046;4.498;2023-05-28T12:39:50;24.60;39.30
29539;DHT22;16482;51.046;4.498;2023-05-28T12:42:20;24.60;39.30
29539;DHT22;16482;51.046;4.498;2023-05-28T12:44:53;24.70;39.30
29539;DHT22;16482;51.046;4.498;2023-05-28T12:47:22;24.70;39.30
29539;DHT22;16482;51.046;4.498;2023-05-28T12:49:50;24.70;39.30
29539;DHT22;16482;51.046;4.498;2023-05-28T12:52:19;24.60;39.30
29539;DHT22;16482;51.046;4.498;2023-05-28T12:54:54;24.60;39.30
29539;DHT22;16482;51.046;4.498;2023-05-28T12:57:20;24.70;39.30
29539;DHT22;16482;51.046;4.498;2023-05-28T12:59:53;24.60;39.30
29539;DHT22;16482;51.046;4.498;2023-05-28T13:02:22;24.70;39.30
29539;DHT22;16482;51.046;4.498;2023-05-28T13:04:50;24.60;39.20
29539;DHT22;16482;51.046;4.498;2023-05-28T13:07:21;24.60;39.20
29539;DHT22;16482;51.046;4.498;2023-05-28T13:09:50;24.60;39.00
29539;DHT22;16482;51.046;4.498;2023-05-28T13:12:24;24.60;39.00
29539;DHT22;16482;51.046;4.498;2023-05-28T13:14:52;24.70;39.00
29539;DHT22;16482;51.046;4.498;2023-05-28T13:17:21;24.70;39.00
29539;DHT22;16482;51.046;4.498;2023-05-28T13:19:56;24.70;39.00
29539;DHT22;16482;51.046;4.498;2023-05-28T13:22:22;24.70;38.90
29539;DHT22;16482;51.046;4.498;2023-05-28T13:24:50;24.60;38.80
29539;DHT22;16482;51.046;4.498;2023-05-28T13:27:19;24.60;38.80
29539;DHT22;16482;51.046;4.498;2023-05-28T13:29:52;24.60;38.70
29539;DHT22;16482;51.046;4.498;2023-05-28T13:32:21;24.70;38.80
29539;DHT22;16482;51.046;4.498;2023-05-28T13:34:50;24.70;38.80
29539;DHT22;16482;51.046;4.498;2023-05-28T13:37:25;24.60;38.70
29539;DHT22;16482;51.046;4.498;2023-05-28T13:39:51;24.60;38.70
29539;DHT22;16482;51.046;4.498;2023-05-28T13:42:17;24.60;38.90
29539;DHT22;16482;51.046;4.498;2023-05-28T13:44:49;24.60;39.00
29539;DHT22;16482;51.046;4.498;2023-05-28T13:47:18;24.60;39.00
29539;DHT22;16482;51.046;4.498;2023-05-28T13:49:52;24.60;39.00
29539;DHT22;16482;51.046;4.498;2023-05-28T13:52:20;24.60;39.00
29539;DHT22;16482;51.046;4.498;2023-05-28T13:54:49;24.60;39.00
29539;DHT22;16482;51.046;4.498;2023-05-28T13:57:22;24.60;38.90
29539;DHT22;16482;51.046;4.498;2023-05-28T13:59:48;24.60;39.00
29539;DHT22;16482;51.046;4.498;2023-05-28T14:02:20;24.60;39.00
29539;DHT22;16482;51.046;4.498;2023-05-28T14:04:49;24.70;39.00
29539;DHT22;16482;51.046;4.498;2023-05-28T14:07:22;24.70;38.90
29539;DHT22;16482;51.046;4.498;2023-05-28T14:09:51;24.70;38.80
29539;DHT22;16482;51.046;4.498;2023-05-28T14:12:20;24.70;39.20
29539;DHT22;16482;51.046;4.498;2023-05-28T14:14:53;24.70;38.80
29539;DHT22;16482;51.046;4.498;2023-05-28T14:17:22;24.70;38.70
29539;DHT22;16482;51.046;4.498;2023-05-28T14:19:50;24.60;38.70
29539;DHT22;16482;51.046;4.498;2023-05-28T14:22:19;24.70;38.70
29539;DHT22;16482;51.046;4.498;2023-05-28T14:24:50;24.70;38.70
29539;DHT22;16482;51.046;4.498;2023-05-28T14:27:19;24.70;38.70
29539;DHT22;16482;51.046;4.498;2023-05-28T14:29:50;24.70;38.60
29539;DHT22;16482;51.046;4.498;2023-05-28T14:32:25;24.70;38.50
29539;DHT22;16482;51.046;4.498;2023-05-28T14:34:51;24.70;38.40
29539;DHT22;16482;51.046;4.498;2023-05-28T14:37:20;24.60;38.40
29539;DHT22;16482;51.046;4.498;2023-05-28T14:39:55;24.60;38.20
29539;DHT22;16482;51.046;4.498;2023-05-28T14:42:21;24.70;38.10
29539;DHT22;16482;51.046;4.498;2023-05-28T14:44:49;24.60;38.10
29539;DHT22;16482;51.046;4.498;2023-05-28T14:47:24;24.70;38.00
29539;DHT22;16482;51.046;4.498;2023-05-28T14:49:51;24.70;38.00
29539;DHT22;16482;51.046;4.498;2023-05-28T14:52:23;24.60;38.10
29539;DHT22;16482;51.046;4.498;2023-05-28T14:54:53;24.50;38.20
29539;DHT22;16482;51.046;4.498;2023-05-28T14:57:20;24.60;38.20
29539;DHT22;16482;51.046;4.498;2023-05-28T15:00:07;24.60;38.10
29539;DHT22;16482;51.046;4.498;2023-05-28T15:02:34;24.60;38.00
29539;DHT22;16482;51.046;4.498;2023-05-28T15:05:00;24.60;38.00
29539;DHT22;16482;51.046;4.498;2023-05-28T15:07:26;24.60;38.00
29539;DHT22;16482;51.046;4.498;2023-05-28T15:09:52;24.60;37.90
29539;DHT22;16482;51.046;4.498;2023-05-28T15:12:20;24.60;37.80
29539;DHT22;16482;51.046;4.498;2023-05-28T15:14:53;24.60;37.80
29539;DHT22;16482;51.046;4.498;2023-05-28T15:17:19;24.60;37.70
29539;DHT22;16482;51.046;4.498;2023-05-28T15:19:51;24.60;37.70
29539;DHT22;16482;51.046;4.498;2023-05-28T15:22:25;24.70;37.70
29539;DHT22;16482;51.046;4.498;2023-05-28T15:24:51;24.60;37.70
29539;DHT22;16482;51.046;4.498;2023-05-28T15:27:20;24.60;37.70
29539;DHT22;16482;51.046;4.498;2023-05-28T15:29:49;24.70;37.70
29539;DHT22;16482;51.046;4.498;2023-05-28T15:32:23;24.60;37.50
29539;DHT22;16482;51.046;4.498;2023-05-28T15:34:49;24.70;37.50
29539;DHT22;16482;51.046;4.498;2023-05-28T15:37:24;24.60;37.50
29539;DHT22;16482;51.046;4.498;2023-05-28T15:39:53;24.60;37.30
29539;DHT22;16482;51.046;4.498;2023-05-28T15:42:19;24.60;37.40
29539;DHT22;16482;51.046;4.498;2023-05-28T15:44:54;24.60;37.30
29539;DHT22;16482;51.046;4.498;2023-05-28T15:47:20;24.60;37.30
29539;DHT22;16482;51.046;4.498;2023-05-28T15:49:49;24.60;37.20
29539;DHT22;16482;51.046;4.498;2023-05-28T15:52:18;24.60;37.20